createdAt,value
2023-01-09T00:01:48.585Z,2.55
2023-01-09T00:04:08.762Z,2.70
2023-01-09T00:06:28.630Z,2.80
2023-01-09T00:08:48.303Z,2.40
2023-01-09T00:11:08.495Z,2.47
2023-01-09T00:13:28.441Z,2.80
2023-01-09T00:15:48.787Z,2.25
2023-01-09T00:18:08.795Z,2.47
2023-01-09T00:20:28.801Z,2.25
2023-01-09T00:22:48.860Z,2.50
2023-01-09T00:25:08.824Z,2.10
2023-01-09T00:27:32.952Z,2.05
2023-01-09T00:29:53.091Z,2.10
2023-01-09T00:32:12.523Z,1.80
2023-01-09T00:34:36.812Z,2.58
2023-01-09T00:36:57.015Z,2.35
2023-01-09T00:39:16.485Z,2.53
2023-01-09T00:41:41.353Z,2.78
2023-01-09T00:44:07.337Z,2.35
2023-01-09T00:46:33.402Z,2.17
2023-01-09T00:48:53.018Z,2.45
2023-01-09T00:51:13.202Z,2.22
2023-01-09T00:53:33.688Z,2.50
2023-01-09T00:55:57.321Z,2.63
2023-01-09T00:58:18.038Z,2.47
2023-01-09T01:00:37.829Z,2.80
2023-01-09T01:02:57.947Z,2.10
2023-01-09T01:05:36.287Z,2.03
2023-01-09T01:07:56.239Z,2.50
2023-01-09T01:10:20.329Z,2.33
2023-01-09T01:12:40.331Z,2.65
2023-01-09T01:15:00.036Z,2.35
2023-01-09T01:17:20.688Z,2.20
2023-01-09T01:19:40.296Z,2.00
2023-01-09T01:22:00.753Z,2.50
2023-01-09T01:24:20.411Z,1.85
2023-01-09T01:26:40.073Z,2.25
2023-01-09T01:28:59.595Z,1.83
2023-01-09T01:31:19.672Z,1.92
2023-01-09T01:33:39.786Z,1.70
2023-01-09T01:36:05.401Z,1.98
2023-01-09T01:38:24.941Z,1.73
2023-01-09T01:40:44.509Z,1.70
2023-01-09T01:43:04.123Z,1.75
2023-01-09T01:45:27.613Z,2.10
2023-01-09T01:48:08.566Z,2.13
2023-01-09T01:50:34.216Z,2.38
2023-01-09T01:52:59.408Z,1.70
2023-01-09T01:55:19.882Z,1.90
2023-01-09T01:57:47.250Z,1.95
2023-01-09T02:00:08.117Z,1.90
2023-01-09T02:02:31.842Z,2.20
2023-01-09T02:04:54.399Z,2.00
2023-01-09T02:07:14.497Z,2.17
2023-01-09T02:09:35.637Z,2.15
2023-01-09T02:11:57.101Z,2.08
2023-01-09T02:14:18.696Z,2.30
2023-01-09T02:16:47.551Z,1.85
2023-01-09T02:19:41.922Z,1.60
2023-01-09T02:22:42.891Z,2.83
2023-01-09T02:25:08.890Z,1.92
2023-01-09T02:28:06.839Z,2.38
2023-01-09T02:30:35.714Z,2.38
2023-01-09T02:33:14.349Z,2.15
2023-01-09T02:35:50.235Z,1.83
2023-01-09T02:38:28.721Z,2.65
2023-01-09T02:41:03.816Z,2.03
2023-01-09T02:43:24.875Z,2.92
2023-01-09T02:45:44.745Z,2.10
2023-01-09T02:48:04.658Z,2.83
2023-01-09T02:50:38.985Z,2.25
2023-01-09T02:53:46.409Z,2.05
2023-01-09T02:56:16.596Z,2.85
2023-01-09T02:59:20.689Z,2.05
2023-01-09T03:01:58.265Z,1.70
2023-01-09T03:04:47.961Z,1.55
2023-01-09T03:07:21.320Z,2.15
2023-01-09T03:09:42.973Z,2.40
2023-01-09T03:12:20.870Z,2.75
2023-01-09T03:14:47.498Z,2.90
2023-01-09T03:17:13.447Z,2.05
2023-01-09T03:19:35.203Z,2.20
2023-01-09T03:21:55.990Z,2.40
2023-01-09T03:24:15.806Z,2.45
2023-01-09T03:26:36.154Z,3.40
2023-01-09T03:28:56.603Z,3.10
2023-01-09T03:31:17.888Z,2.67
2023-01-09T03:33:38.218Z,2.63
2023-01-09T03:35:57.977Z,2.50
2023-01-09T03:38:18.026Z,2.75
2023-01-09T03:40:37.943Z,3.63
2023-01-09T03:42:58.077Z,2.83
2023-01-09T03:45:17.912Z,3.78
2023-01-09T03:47:37.997Z,4.57
2023-01-09T03:49:57.757Z,3.28
2023-01-09T03:52:17.310Z,3.25
2023-01-09T03:54:38.625Z,2.72
2023-01-09T03:56:58.260Z,3.05
2023-01-09T03:59:18.019Z,3.28
2023-01-09T04:01:37.661Z,4.13
2023-01-09T04:03:58.045Z,2.60
2023-01-09T04:06:17.789Z,4.57
2023-01-09T04:08:37.954Z,3.10
2023-01-09T04:10:58.054Z,2.65
2023-01-09T04:13:18.382Z,3.38
2023-01-09T04:15:38.018Z,2.83
2023-01-09T04:17:57.498Z,3.65
2023-01-09T04:20:17.692Z,3.95
2023-01-09T04:22:37.784Z,3.10
2023-01-09T04:24:57.967Z,3.45
2023-01-09T04:27:18.084Z,6.22
2023-01-09T04:29:38.377Z,3.20
2023-01-09T04:31:58.655Z,4.97
2023-01-09T04:34:18.410Z,4.93
2023-01-09T04:36:38.993Z,5.47
2023-01-09T04:38:58.656Z,4.35
2023-01-09T04:41:36.934Z,9.57
2023-01-09T04:43:56.742Z,3.92
2023-01-09T04:46:17.198Z,5.40
2023-01-09T04:48:37.128Z,4.20
2023-01-09T04:50:57.260Z,7.22
2023-01-09T04:53:16.805Z,3.70
2023-01-09T04:55:36.940Z,6.05
2023-01-09T04:57:57.089Z,3.58
2023-01-09T05:00:17.122Z,3.33
2023-01-09T05:02:37.625Z,4.43
2023-01-09T05:04:57.426Z,7.05
2023-01-09T05:07:18.634Z,4.72
2023-01-09T05:09:38.644Z,4.90
2023-01-09T05:11:58.514Z,9.63
2023-01-09T05:14:19.060Z,9.80
2023-01-09T05:16:39.475Z,7.47
2023-01-09T05:18:59.870Z,5.20
2023-01-09T05:21:19.602Z,5.28
2023-01-09T05:23:39.660Z,3.60
2023-01-09T05:25:59.598Z,6.68
2023-01-09T05:28:19.646Z,4.75
2023-01-09T05:30:39.272Z,3.15
2023-01-09T05:32:58.917Z,4.45
2023-01-09T05:35:19.610Z,6.45
2023-01-09T05:37:39.574Z,10.75
2023-01-09T05:39:59.831Z,3.95
2023-01-09T05:42:19.863Z,7.80
2023-01-09T05:44:39.435Z,4.10
2023-01-09T05:47:00.527Z,3.67
2023-01-09T05:49:21.300Z,7.25
2023-01-09T05:51:41.541Z,6.90
2023-01-09T05:54:02.279Z,5.03
2023-01-09T05:56:21.931Z,4.97
2023-01-09T05:58:41.698Z,9.57
2023-01-09T06:01:01.235Z,5.10
2023-01-09T06:03:20.944Z,5.07
2023-01-09T06:05:40.588Z,6.70
2023-01-09T06:08:00.895Z,5.30
2023-01-09T06:10:21.101Z,4.55
2023-01-09T06:12:44.089Z,3.90
2023-01-09T06:15:05.585Z,3.17
2023-01-09T06:17:26.642Z,8.57
2023-01-09T06:19:46.511Z,9.02
2023-01-09T06:22:06.690Z,5.30
2023-01-09T06:24:26.947Z,7.72
2023-01-09T06:26:46.625Z,4.72
2023-01-09T06:29:07.415Z,8.60
2023-01-09T06:31:27.421Z,3.08
2023-01-09T06:33:47.367Z,5.05
2023-01-09T06:36:07.760Z,6.43
2023-01-09T06:38:27.556Z,5.88
2023-01-09T06:40:47.358Z,5.85
2023-01-09T06:43:07.454Z,5.80
2023-01-09T06:45:27.636Z,5.70
2023-01-09T06:47:48.058Z,12.63
2023-01-09T06:50:08.927Z,5.75
2023-01-09T06:52:29.057Z,9.02
2023-01-09T06:54:49.037Z,10.18
2023-01-09T06:57:08.682Z,8.55
2023-01-09T06:59:28.613Z,3.92
2023-01-09T07:01:48.273Z,5.50
2023-01-09T07:04:11.386Z,4.60
2023-01-09T07:06:32.057Z,5.47
2023-01-09T07:08:51.637Z,8.80
2023-01-09T07:11:11.724Z,6.68
2023-01-09T07:13:31.502Z,5.55
2023-01-09T07:15:52.970Z,3.17
2023-01-09T07:18:12.781Z,4.10
2023-01-09T07:20:32.260Z,2.90
2023-01-09T07:22:53.363Z,6.82
2023-01-09T07:25:13.508Z,2.75
2023-01-09T07:27:33.130Z,5.65
2023-01-09T07:29:53.335Z,2.92
2023-01-09T07:32:13.424Z,3.33
2023-01-09T07:34:33.568Z,5.28
2023-01-09T07:36:53.661Z,5.82
2023-01-09T07:39:14.236Z,5.28
2023-01-09T07:41:34.126Z,9.23
2023-01-09T07:43:53.723Z,10.35
2023-01-09T07:46:13.535Z,3.58
2023-01-09T07:48:33.499Z,10.52
2023-01-09T07:50:53.400Z,8.02
2023-01-09T07:53:13.602Z,4.32
2023-01-09T07:55:33.214Z,4.40
2023-01-09T07:57:53.033Z,5.07
2023-01-09T08:00:13.491Z,7.95
2023-01-09T08:02:33.423Z,4.78
2023-01-09T08:04:53.130Z,2.90
2023-01-09T08:07:13.568Z,3.30
2023-01-09T08:09:33.448Z,6.68
2023-01-09T08:11:53.627Z,4.57
2023-01-09T08:14:13.641Z,4.45
2023-01-09T08:16:33.461Z,4.18
2023-01-09T08:18:53.384Z,8.57
2023-01-09T08:21:13.746Z,4.13
2023-01-09T08:23:33.568Z,5.40
2023-01-09T08:25:53.462Z,5.30
2023-01-09T08:28:13.820Z,3.50
2023-01-09T08:30:33.569Z,5.15
2023-01-09T08:32:53.859Z,4.15
2023-01-09T08:35:13.611Z,9.85
2023-01-09T08:37:33.148Z,2.47
2023-01-09T08:39:52.911Z,5.40
2023-01-09T08:42:31.543Z,5.20
2023-01-09T08:45:09.669Z,3.25
2023-01-09T08:47:33.412Z,2.75
2023-01-09T08:49:53.469Z,4.85
2023-01-09T08:52:13.122Z,4.28
2023-01-09T08:54:36.090Z,5.03
2023-01-09T08:56:55.781Z,3.97
2023-01-09T08:59:16.353Z,4.00
2023-01-09T09:01:36.537Z,5.07
2023-01-09T09:03:56.538Z,4.18
2023-01-09T09:06:16.983Z,4.22
2023-01-09T09:08:37.051Z,6.32
2023-01-09T09:10:57.053Z,7.15
2023-01-09T09:13:16.976Z,2.28
2023-01-09T09:15:38.372Z,2.45
2023-01-09T09:18:03.896Z,8.25
2023-01-09T09:20:31.068Z,2.45
2023-01-09T09:22:51.216Z,6.03
2023-01-09T09:25:10.841Z,5.45
2023-01-09T09:27:31.443Z,3.28
2023-01-09T09:29:51.405Z,4.97
2023-01-09T09:32:11.632Z,4.22
2023-01-09T09:34:31.831Z,1.95
2023-01-09T09:36:51.653Z,7.75
2023-01-09T09:39:11.619Z,2.42
2023-01-09T09:42:01.907Z,4.85
2023-01-09T09:44:48.453Z,4.55
2023-01-09T09:47:27.989Z,5.25
2023-01-09T09:50:12.365Z,2.17
2023-01-09T09:52:59.619Z,4.35
2023-01-09T09:55:34.565Z,3.38
2023-01-09T09:57:55.851Z,4.95
2023-01-09T10:00:19.565Z,6.10
2023-01-09T10:02:49.853Z,4.30
2023-01-09T10:05:20.562Z,4.57
2023-01-09T10:07:46.937Z,2.50
2023-01-09T10:10:15.437Z,2.60
2023-01-09T10:12:44.856Z,6.05
2023-01-09T10:15:19.161Z,3.28
2023-01-09T10:17:55.588Z,2.80
2023-01-09T10:20:33.688Z,2.95
2023-01-09T10:23:21.424Z,6.65
2023-01-09T10:25:48.358Z,5.55
2023-01-09T10:28:26.884Z,11.18
2023-01-09T10:31:00.338Z,8.98
2023-01-09T10:33:49.613Z,4.93
2023-01-09T10:36:21.939Z,4.22
2023-01-09T10:38:45.544Z,4.93
2023-01-09T10:41:16.337Z,5.55
2023-01-09T10:43:48.710Z,6.18
2023-01-09T10:46:19.883Z,2.80
2023-01-09T10:48:44.964Z,2.30
2023-01-09T10:51:18.880Z,4.00
2023-01-09T10:53:45.004Z,2.63
2023-01-09T10:56:26.960Z,3.88
2023-01-09T10:58:47.097Z,2.70
2023-01-09T11:01:08.620Z,7.05
2023-01-09T11:03:28.828Z,4.95
2023-01-09T11:05:57.798Z,4.45
2023-01-09T11:08:23.723Z,2.03
2023-01-09T11:10:55.300Z,2.38
2023-01-09T11:13:26.280Z,6.35
2023-01-09T11:15:57.837Z,3.28
2023-01-09T11:18:20.769Z,2.45
2023-01-09T11:20:40.695Z,4.05
2023-01-09T11:23:01.018Z,1.63
2023-01-09T11:25:23.568Z,3.17
2023-01-09T11:27:44.196Z,2.08
2023-01-09T11:30:20.111Z,9.50
2023-01-09T11:32:40.587Z,5.30
2023-01-09T11:35:04.052Z,4.30
2023-01-09T11:37:28.393Z,6.18
2023-01-09T11:39:48.473Z,2.60
2023-01-09T11:42:42.435Z,3.05
2023-01-09T11:47:38.699Z,4.22
2023-01-09T11:50:17.021Z,5.03
2023-01-09T11:52:36.800Z,4.05
2023-01-09T11:55:03.614Z,2.80
2023-01-09T11:57:25.296Z,4.53
2023-01-09T11:59:45.211Z,2.53
2023-01-09T12:02:31.529Z,4.30
2023-01-09T12:04:58.180Z,3.40
2023-01-09T12:07:36.505Z,2.90
2023-01-09T12:10:21.870Z,9.07
2023-01-09T12:13:00.387Z,2.38
2023-01-09T12:16:05.272Z,2.42
2023-01-09T12:18:56.176Z,4.28
2023-01-09T12:21:25.114Z,5.18
2023-01-09T12:23:59.760Z,7.30
2023-01-09T12:26:37.945Z,2.45
2023-01-09T12:29:19.373Z,4.18
2023-01-09T12:32:03.768Z,4.03
2023-01-09T12:34:51.767Z,2.13
2023-01-09T12:37:30.373Z,2.55
2023-01-09T12:39:56.315Z,3.05
2023-01-09T12:42:19.260Z,5.82
2023-01-09T12:44:54.814Z,2.53
2023-01-09T12:47:27.819Z,2.75
2023-01-09T12:50:21.708Z,2.97
2023-01-09T12:52:48.341Z,6.43
2023-01-09T12:55:17.402Z,3.10
2023-01-09T12:57:44.229Z,2.97
2023-01-09T13:00:18.902Z,1.85
2023-01-09T13:02:45.271Z,7.43
2023-01-09T13:05:16.244Z,2.53
2023-01-09T13:07:49.076Z,3.42
2023-01-09T13:13:07.971Z,2.63
2023-01-09T13:15:46.788Z,6.10
2023-01-09T13:18:19.383Z,4.22
2023-01-09T13:20:51.854Z,3.88
2023-01-09T13:23:27.389Z,4.82
2023-01-09T13:25:56.963Z,3.30
2023-01-09T13:28:23.661Z,4.60
2023-01-09T13:31:26.450Z,14.18
2023-01-09T13:33:57.869Z,6.30
2023-01-09T13:36:39.414Z,6.20
2023-01-09T13:39:01.963Z,6.32
2023-01-09T13:41:41.660Z,7.25
2023-01-09T13:44:03.657Z,11.38
2023-01-09T13:46:34.826Z,28.30
2023-01-09T13:48:54.777Z,32.22
2023-01-09T13:51:43.090Z,10.30
2023-01-09T13:54:02.982Z,6.20
2023-01-09T13:56:24.076Z,3.60
2023-01-09T13:58:59.318Z,6.70
2023-01-09T14:01:34.807Z,7.15
2023-01-09T14:04:14.692Z,4.10
2023-01-09T14:06:34.982Z,5.22
2023-01-09T14:09:14.806Z,11.35
2023-01-09T14:11:34.805Z,9.07
2023-01-09T14:14:01.716Z,7.65
2023-01-09T14:16:24.142Z,5.57
2023-01-09T14:18:50.315Z,3.78
2023-01-09T14:21:11.405Z,3.92
2023-01-09T14:23:50.774Z,2.83
2023-01-09T14:26:24.136Z,7.40
2023-01-09T14:28:44.205Z,5.45
2023-01-09T14:31:05.377Z,10.40
2023-01-09T14:33:29.260Z,9.20
2023-01-09T14:35:58.517Z,4.95
2023-01-09T14:38:33.235Z,5.05
2023-01-09T14:41:13.695Z,4.22
2023-01-09T14:43:58.606Z,4.57
2023-01-09T14:46:20.447Z,3.47
2023-01-09T14:48:51.450Z,4.68
2023-01-09T14:51:17.408Z,5.20
2023-01-09T14:53:38.969Z,4.78
2023-01-09T14:56:04.015Z,4.88
2023-01-09T14:58:28.872Z,4.13
2023-01-09T15:00:54.408Z,4.78
2023-01-09T15:03:15.508Z,6.32
2023-01-09T15:05:36.166Z,5.32
2023-01-09T15:08:00.816Z,5.80
2023-01-09T15:10:32.294Z,6.35
2023-01-09T15:12:55.074Z,8.93
2023-01-09T15:15:16.882Z,6.22
2023-01-09T15:17:38.699Z,6.80
2023-01-09T15:20:00.620Z,12.90
2023-01-09T15:22:33.710Z,6.53
2023-01-09T15:24:53.894Z,6.05
2023-01-09T15:27:15.534Z,4.95
2023-01-09T15:29:35.451Z,3.83
2023-01-09T15:32:26.556Z,2.53
2023-01-09T15:34:48.382Z,3.65
2023-01-09T15:37:23.784Z,2.83
2023-01-09T15:39:43.953Z,2.65
2023-01-09T15:42:22.850Z,2.85
2023-01-09T15:44:45.552Z,5.05
2023-01-09T15:47:11.690Z,3.50
2023-01-09T15:49:33.513Z,3.13
2023-01-09T15:51:54.143Z,3.35
2023-01-09T15:54:39.350Z,4.85
2023-01-09T15:57:27.167Z,7.20
2023-01-09T15:59:47.247Z,7.93
2023-01-09T16:02:32.892Z,21.83
2023-01-09T16:04:55.061Z,14.88
2023-01-09T16:07:17.893Z,21.00
2023-01-09T16:09:37.548Z,23.75
2023-01-09T16:12:00.915Z,35.65
2023-01-09T16:14:29.941Z,8.95
2023-01-09T16:16:51.862Z,12.35
2023-01-09T16:19:55.176Z,20.02
2023-01-09T16:22:32.849Z,10.32
2023-01-09T16:25:00.164Z,11.27
2023-01-09T16:27:28.061Z,4.78
2023-01-09T16:29:49.544Z,5.10
2023-01-09T16:32:18.663Z,6.07
2023-01-09T16:34:43.377Z,5.40
2023-01-09T16:37:04.954Z,40.45
2023-01-09T16:39:24.971Z,29.27
2023-01-09T16:42:03.378Z,52.13
2023-01-09T16:44:23.466Z,44.10
2023-01-09T16:46:44.393Z,41.78
2023-01-09T16:49:13.879Z,41.85
2023-01-09T16:51:33.854Z,53.83
2023-01-09T16:53:54.323Z,48.67
2023-01-09T16:56:26.113Z,47.38
2023-01-09T16:58:46.308Z,42.13
2023-01-09T17:01:06.601Z,43.97
2023-01-09T17:03:26.940Z,45.35
2023-01-09T17:05:59.150Z,46.22
2023-01-09T17:08:30.994Z,37.25
2023-01-09T17:10:52.193Z,33.22
2023-01-09T17:13:11.802Z,49.35
2023-01-09T17:15:32.572Z,55.65
2023-01-09T17:17:52.519Z,53.58
2023-01-09T17:20:17.549Z,49.42
2023-01-09T17:22:37.427Z,33.08
2023-01-09T17:25:15.939Z,27.92
2023-01-09T17:27:56.601Z,45.17
2023-01-09T17:30:19.483Z,59.58
2023-01-09T17:32:39.575Z,49.60
2023-01-09T17:34:59.700Z,46.85
2023-01-09T17:37:19.774Z,42.63
2023-01-09T17:39:39.824Z,62.45
2023-01-09T17:42:01.227Z,58.25
2023-01-09T17:44:21.451Z,39.85
2023-01-09T17:46:43.783Z,25.45
2023-01-09T17:49:05.362Z,23.98
2023-01-09T17:51:25.403Z,23.80
2023-01-09T17:53:45.349Z,38.92
2023-01-09T17:56:05.848Z,79.68
2023-01-09T17:58:30.639Z,72.80
2023-01-09T18:00:50.923Z,45.42
2023-01-09T18:03:10.805Z,56.80
2023-01-09T18:05:30.928Z,54.35
2023-01-09T18:07:50.872Z,59.20
2023-01-09T18:10:14.929Z,71.88
2023-01-09T18:12:34.574Z,80.63
2023-01-09T18:14:54.630Z,87.68
2023-01-09T18:17:14.818Z,77.78
2023-01-09T18:19:35.310Z,83.75
2023-01-09T22:05:09.387Z,42.45
2023-01-09T22:07:34.780Z,43.67
2023-01-09T22:12:39.702Z,70.03
2023-01-09T22:15:00.241Z,158.13
2023-01-09T22:17:21.156Z,63.97
2023-01-09T22:19:41.745Z,154.90
2023-01-09T22:22:03.391Z,87.15
2023-01-09T22:24:37.290Z,92.93
2023-01-09T22:26:57.831Z,195.15
2023-01-09T22:29:19.074Z,80.43
2023-01-09T22:42:02.668Z,162.85
2023-01-09T22:44:25.367Z,30.38
2023-01-09T22:49:06.520Z,31.70
2023-01-09T22:51:26.887Z,79.50
2023-01-09T22:53:47.225Z,314.52
2023-01-09T22:56:11.928Z,41.42
2023-01-09T22:58:32.559Z,15.98
2023-01-09T23:00:58.121Z,30.88
2023-01-09T23:03:30.701Z,108.95
2023-01-09T23:06:16.031Z,32.72
2023-01-09T23:08:39.676Z,34.70
2023-01-09T23:13:37.640Z,116.15
2023-01-09T23:15:58.255Z,236.32
2023-01-09T23:18:18.977Z,131.77
2023-01-09T23:20:39.925Z,179.15
2023-01-09T23:23:00.198Z,98.28
2023-01-09T23:25:21.199Z,229.07
2023-01-09T23:27:42.337Z,103.93
2023-01-09T23:30:03.029Z,62.65
2023-01-09T23:32:23.202Z,149.95
2023-01-09T23:34:44.906Z,252.55
2023-01-09T23:37:08.482Z,227.85
2023-01-09T23:39:28.973Z,13.68
2023-01-09T23:42:08.142Z,14.70
2023-01-09T23:44:29.948Z,49.45
2023-01-09T23:46:50.693Z,17.08
2023-01-09T23:49:10.873Z,19.48
2023-01-09T23:51:31.088Z,12.50
2023-01-09T23:53:51.428Z,12.70
2023-01-09T23:56:11.884Z,12.27
2023-01-09T23:58:31.968Z,26.70
